Hauptseite
METAR-TAF:

METAR-TAF

Flughäfen :

Bohrplattform

Euro, Niederlande

Breite: 51-59-52N, Länge: 3-16-30E, Höhe: 18 m

Beobachtung

Neuester Wetterbericht von vor 39 Minuten, um 02:55 UTC
Wind 13 kt aus Nord
Temperatur 6°C
Luftfeuchtigkeit 70%
Luftdruck 1031 hPa
Sichtweite 10 km oder mehr

METAR: EHSA 150255Z AUTO 35013KT 9999 ///////// 06/01 Q1031 W08/H11

Zeit: 05:34 (03:34 UTC)


TAF: fehlend

Wetterbeobachtungen und Prognosen von mehr als 4000 Flughäfen (METAR und TAF Bericht).

Die verfügbaren Stationen werden durch gelbe und rote Markierungen auf der Karte dargestellt.

Führen Sie die Maus auf sie, um den Namen der Station zu sehen.

Darauf klicken, um die Beobachtung von Wetterbeobachtungen und Prognosen zu sehen.

Um die Karte zu ändern : klicken Sie auf den grünen Tasten mit einem schwarzen Kreuz Zum Vergrößern, auf den grünen Button mit einem Gedankenstrich zu verkleinern, oder auf die grünen Pfeile für benachbarte Karten.


METAR-TAF: